Aeroporto :
LOGIN :

Iscrizione | Disclaimer

   EN    FR    IT 

 










Sommario :    VFR   VFR Marginale   IFR   IFR Intensivo   IFR Molto Intensivo
Visibilità : 
Base nubi : 
>= 8 km
>= 3000ft
5 / 8 km
1000 / 3000 ft
1500m / 5 km
500 / 1000 ft
800 / 1500m
200 / 500 ft
< 800m
< 200 ft
Simboli :   Temporali  Nebbia  Neve Forte  Precipitazioni Forti  Vento > 20 kt
SIGMETs :   Varie  Temporali  Ghiacco  Turbolenza  Onda orograficha  Ceneri Vulcaniche






- Altitudine del aeroporto : 15 ft
- Codice IATA : BHD


EGAC - George Best Belfast City

ULTIMO METAR :
  • 021850Z AUTO 31007KT 240V010 9999 BKN038/// BKN049/// 08/02 Q1015

METARs OBSOLETI :
  • 021820Z AUTO 32008KT 9999 NCD 08/02 Q1015
  • 021750Z AUTO 32009KT 290V360 9999 SCT035/// BKN046/// 08/02 Q1015
  • 021720Z AUTO 31008KT 270V010 9999 SCT039/// OVC048/// 08/01 Q1015
  • 021650Z AUTO 30010KT 270V340 9999 FEW042/// OVC049/// 08/02 Q1014
  • 021620Z AUTO 32008KT 250V010 9999 FEW034/// OVC044/// 08/03 Q1014

TAF TAF EGAC
Valido dal 02 a 18 ore il 02 a 21 ore UTC


021657Z 0218/0221 31008KT 9999 FEW025 SCT040
PROB30
TEMPO 0218/0221 9000 -SHRA
ATIS : +44 02890 935 124



MetMap, La meteo Aeronautica in un colpo d'occhio ! - Copyright ORBIFLY Dicembre 2007 - Disclaimer

ORBIFLY MET'MAP TEAM :

Programmazione e sviluppo : Alexandra Zaïnal
Concezione : Baudouin d'Aumeries
Aiuto per la programmazione : Marc-Olivier Méhu
Supporto tecnico e logistico : Manuel Goepfert
Aiuto per la traduzione : Arnaldo La Scala

Contatto : metmap@orbifly.com




FONTI E CREDITI :

   NOAA